sensor_id;sensor_type;location;lat;lon;timestamp;temperature;humidity
75281;HTU21D;63874;47.230;39.620;2023-08-30T00:00:48;18.69;40.63
75281;HTU21D;63874;47.230;39.620;2023-08-30T00:03:14;18.65;40.84
75281;HTU21D;63874;47.230;39.620;2023-08-30T00:05:40;18.62;41.04
75281;HTU21D;63874;47.230;39.620;2023-08-30T00:08:06;18.57;41.13
75281;HTU21D;63874;47.230;39.620;2023-08-30T00:10:32;18.51;41.34
75281;HTU21D;63874;47.230;39.620;2023-08-30T00:12:58;18.46;41.51
75281;HTU21D;63874;47.230;39.620;2023-08-30T00:15:24;18.43;41.36
75281;HTU21D;63874;47.230;39.620;2023-08-30T00:17:50;18.42;41.42
75281;HTU21D;63874;47.230;39.620;2023-08-30T00:20:20;18.40;41.46
75281;HTU21D;63874;47.230;39.620;2023-08-30T00:22:47;18.38;41.49
75281;HTU21D;63874;47.230;39.620;2023-08-30T00:25:14;18.37;41.19
75281;HTU21D;63874;47.230;39.620;2023-08-30T00:27:41;18.39;40.88
75281;HTU21D;63874;47.230;39.620;2023-08-30T00:30:07;18.42;40.74
75281;HTU21D;63874;47.230;39.620;2023-08-30T00:32:35;18.46;40.72
75281;HTU21D;63874;47.230;39.620;2023-08-30T00:35:01;18.44;40.64
75281;HTU21D;63874;47.230;39.620;2023-08-30T00:37:29;18.44;40.78
75281;HTU21D;63874;47.230;39.620;2023-08-30T00:39:55;18.42;40.97
75281;HTU21D;63874;47.230;39.620;2023-08-30T00:42:21;18.39;41.10
75281;HTU21D;63874;47.230;39.620;2023-08-30T00:44:48;18.33;41.23
75281;HTU21D;63874;47.230;39.620;2023-08-30T00:47:14;18.30;41.39
75281;HTU21D;63874;47.230;39.620;2023-08-30T00:49:41;18.27;41.39
75281;HTU21D;63874;47.230;39.620;2023-08-30T00:52:09;18.27;41.53
75281;HTU21D;63874;47.230;39.620;2023-08-30T00:54:35;18.23;41.49
75281;HTU21D;63874;47.230;39.620;2023-08-30T00:57:02;18.23;41.52
75281;HTU21D;63874;47.230;39.620;2023-08-30T00:59:29;18.22;41.64
75281;HTU21D;63874;47.230;39.620;2023-08-30T01:01:57;18.19;41.88
75281;HTU21D;63874;47.230;39.620;2023-08-30T01:04:24;18.17;42.10
75281;HTU21D;63874;47.230;39.620;2023-08-30T01:06:50;18.12;42.32
75281;HTU21D;63874;47.230;39.620;2023-08-30T01:09:16;18.09;42.62
75281;HTU21D;63874;47.230;39.620;2023-08-30T01:11:48;18.06;42.72
75281;HTU21D;63874;47.230;39.620;2023-08-30T01:14:27;18.00;42.84
75281;HTU21D;63874;47.230;39.620;2023-08-30T01:16:55;17.98;43.35
75281;HTU21D;63874;47.230;39.620;2023-08-30T01:19:38;17.92;43.42
75281;HTU21D;63874;47.230;39.620;2023-08-30T01:22:12;17.85;43.88
75281;HTU21D;63874;47.230;39.620;2023-08-30T01:25:00;17.80;44.20
75281;HTU21D;63874;47.230;39.620;2023-08-30T01:27:33;17.72;44.39
75281;HTU21D;63874;47.230;39.620;2023-08-30T01:30:01;17.63;44.61
75281;HTU21D;63874;47.230;39.620;2023-08-30T01:32:28;17.58;44.88
75281;HTU21D;63874;47.230;39.620;2023-08-30T01:34:56;17.54;45.16
75281;HTU21D;63874;47.230;39.620;2023-08-30T01:37:23;17.49;45.36
75281;HTU21D;63874;47.230;39.620;2023-08-30T01:39:51;17.45;45.65
75281;HTU21D;63874;47.230;39.620;2023-08-30T01:42:17;17.40;45.73
75281;HTU21D;63874;47.230;39.620;2023-08-30T01:44:49;17.37;45.93
75281;HTU21D;63874;47.230;39.620;2023-08-30T01:47:17;17.34;46.04
75281;HTU21D;63874;47.230;39.620;2023-08-30T01:49:44;17.30;46.05
75281;HTU21D;63874;47.230;39.620;2023-08-30T01:52:10;17.25;46.17
75281;HTU21D;63874;47.230;39.620;2023-08-30T01:54:37;17.23;46.27
75281;HTU21D;63874;47.230;39.620;2023-08-30T01:57:05;17.20;46.28
75281;HTU21D;63874;47.230;39.620;2023-08-30T01:59:31;17.15;46.38
75281;HTU21D;63874;47.230;39.620;2023-08-30T02:01:57;17.13;46.41
75281;HTU21D;63874;47.230;39.620;2023-08-30T02:04:23;17.09;46.44
75281;HTU21D;63874;47.230;39.620;2023-08-30T02:06:59;17.09;46.37
75281;HTU21D;63874;47.230;39.620;2023-08-30T02:10:06;17.08;46.45
75281;HTU21D;63874;47.230;39.620;2023-08-30T02:12:54;17.08;46.38
75281;HTU21D;63874;47.230;39.620;2023-08-30T02:15:21;17.03;46.44
75281;HTU21D;63874;47.230;39.620;2023-08-30T02:17:48;17.01;46.59
75281;HTU21D;63874;47.230;39.620;2023-08-30T02:20:16;16.99;46.57
75281;HTU21D;63874;47.230;39.620;2023-08-30T02:22:42;16.96;46.64
75281;HTU21D;63874;47.230;39.620;2023-08-30T02:25:08;16.93;46.67
75281;HTU21D;63874;47.230;39.620;2023-08-30T02:27:35;16.90;46.73
75281;HTU21D;63874;47.230;39.620;2023-08-30T02:30:01;16.89;46.75
75281;HTU21D;63874;47.230;39.620;2023-08-30T02:32:28;16.84;46.79
75281;HTU21D;63874;47.230;39.620;2023-08-30T02:34:55;16.82;46.73
75281;HTU21D;63874;47.230;39.620;2023-08-30T02:37:21;16.78;46.79
75281;HTU21D;63874;47.230;39.620;2023-08-30T02:39:49;16.76;46.80
75281;HTU21D;63874;47.230;39.620;2023-08-30T02:42:15;16.74;46.76
75281;HTU21D;63874;47.230;39.620;2023-08-30T02:44:41;16.73;46.78
75281;HTU21D;63874;47.230;39.620;2023-08-30T02:47:10;16.70;46.80
75281;HTU21D;63874;47.230;39.620;2023-08-30T02:49:35;16.69;46.86
75281;HTU21D;63874;47.230;39.620;2023-08-30T02:52:01;16.67;46.81
75281;HTU21D;63874;47.230;39.620;2023-08-30T02:54:27;16.69;46.83
75281;HTU21D;63874;47.230;39.620;2023-08-30T02:56:53;16.69;46.74
75281;HTU21D;63874;47.230;39.620;2023-08-30T02:59:19;16.70;46.70
75281;HTU21D;63874;47.230;39.620;2023-08-30T03:01:45;16.69;46.72
75281;HTU21D;63874;47.230;39.620;2023-08-30T03:04:13;16.67;46.64
75281;HTU21D;63874;47.230;39.620;2023-08-30T03:06:40;16.67;46.67
75281;HTU21D;63874;47.230;39.620;2023-08-30T03:09:06;16.69;46.64
75281;HTU21D;63874;47.230;39.620;2023-08-30T03:11:35;16.71;46.62
75281;HTU21D;63874;47.230;39.620;2023-08-30T03:14:03;16.72;46.68
75281;HTU21D;63874;47.230;39.620;2023-08-30T03:16:28;16.72;46.64
75281;HTU21D;63874;47.230;39.620;2023-08-30T03:18:55;16.74;46.60
75281;HTU21D;63874;47.230;39.620;2023-08-30T03:21:21;16.77;46.57
75281;HTU21D;63874;47.230;39.620;2023-08-30T03:23:47;16.78;46.51
75281;HTU21D;63874;47.230;39.620;2023-08-30T03:26:16;16.81;46.54
75281;HTU21D;63874;47.230;39.620;2023-08-30T03:28:43;16.85;46.49
75281;HTU21D;63874;47.230;39.620;2023-08-30T03:31:18;16.88;46.38
75281;HTU21D;63874;47.230;39.620;2023-08-30T03:33:45;16.92;46.30
75281;HTU21D;63874;47.230;39.620;2023-08-30T03:36:14;16.96;46.22
75281;HTU21D;63874;47.230;39.620;2023-08-30T03:38:40;17.03;46.09
75281;HTU21D;63874;47.230;39.620;2023-08-30T03:41:07;17.09;46.01
75281;HTU21D;63874;47.230;39.620;2023-08-30T03:43:33;17.15;45.85
75281;HTU21D;63874;47.230;39.620;2023-08-30T03:46:00;17.21;45.70
75281;HTU21D;63874;47.230;39.620;2023-08-30T03:48:29;17.28;45.61
75281;HTU21D;63874;47.230;39.620;2023-08-30T03:50:56;17.34;45.43
75281;HTU21D;63874;47.230;39.620;2023-08-30T03:53:23;17.40;45.25
75281;HTU21D;63874;47.230;39.620;2023-08-30T03:55:49;17.47;45.16
75281;HTU21D;63874;47.230;39.620;2023-08-30T03:58:17;17.54;44.90
75281;HTU21D;63874;47.230;39.620;2023-08-30T04:00:43;17.63;44.74
75281;HTU21D;63874;47.230;39.620;2023-08-30T04:03:10;17.70;44.48
75281;HTU21D;63874;47.230;39.620;2023-08-30T04:05:36;17.77;44.35
75281;HTU21D;63874;47.230;39.620;2023-08-30T04:08:03;17.84;44.25
75281;HTU21D;63874;47.230;39.620;2023-08-30T04:10:29;17.93;44.20
75281;HTU21D;63874;47.230;39.620;2023-08-30T04:12:55;18.03;44.19
75281;HTU21D;63874;47.230;39.620;2023-08-30T04:15:21;18.12;44.02
75281;HTU21D;63874;47.230;39.620;2023-08-30T04:17:47;18.24;43.77
75281;HTU21D;63874;47.230;39.620;2023-08-30T04:20:12;18.34;43.49
75281;HTU21D;63874;47.230;39.620;2023-08-30T04:22:38;18.43;43.41
75281;HTU21D;63874;47.230;39.620;2023-08-30T04:25:05;18.51;43.10
75281;HTU21D;63874;47.230;39.620;2023-08-30T04:27:30;18.61;43.06
75281;HTU21D;63874;47.230;39.620;2023-08-30T04:29:56;18.70;43.00
75281;HTU21D;63874;47.230;39.620;2023-08-30T04:32:22;18.80;42.78
75281;HTU21D;63874;47.230;39.620;2023-08-30T04:34:48;18.88;42.62
75281;HTU21D;63874;47.230;39.620;2023-08-30T04:37:14;18.96;42.52
75281;HTU21D;63874;47.230;39.620;2023-08-30T04:39:41;19.06;42.37
75281;HTU21D;63874;47.230;39.620;2023-08-30T04:42:08;19.18;42.13
75281;HTU21D;63874;47.230;39.620;2023-08-30T04:44:36;19.30;41.77
75281;HTU21D;63874;47.230;39.620;2023-08-30T04:47:01;19.46;41.59
75281;HTU21D;63874;47.230;39.620;2023-08-30T04:49:28;19.90;41.14
75281;HTU21D;63874;47.230;39.620;2023-08-30T04:51:55;20.17;40.12
75281;HTU21D;63874;47.230;39.620;2023-08-30T04:54:22;20.20;39.85
75281;HTU21D;63874;47.230;39.620;2023-08-30T04:56:48;20.19;39.74
75281;HTU21D;63874;47.230;39.620;2023-08-30T04:59:14;20.17;39.72
75281;HTU21D;63874;47.230;39.620;2023-08-30T05:01:43;20.14;39.64
75281;HTU21D;63874;47.230;39.620;2023-08-30T05:04:10;20.17;39.72
75281;HTU21D;63874;47.230;39.620;2023-08-30T05:06:36;20.20;39.77
75281;HTU21D;63874;47.230;39.620;2023-08-30T05:09:03;20.28;39.58
75281;HTU21D;63874;47.230;39.620;2023-08-30T05:11:29;20.33;39.28
75281;HTU21D;63874;47.230;39.620;2023-08-30T05:13:55;20.41;39.03
75281;HTU21D;63874;47.230;39.620;2023-08-30T05:16:21;20.66;38.87
75281;HTU21D;63874;47.230;39.620;2023-08-30T05:18:48;20.92;37.93
75281;HTU21D;63874;47.230;39.620;2023-08-30T05:21:14;20.95;37.75
75281;HTU21D;63874;47.230;39.620;2023-08-30T05:23:42;20.98;37.37
75281;HTU21D;63874;47.230;39.620;2023-08-30T05:26:10;20.98;37.49
75281;HTU21D;63874;47.230;39.620;2023-08-30T05:28:38;20.99;37.41
75281;HTU21D;63874;47.230;39.620;2023-08-30T05:31:05;21.02;37.46
75281;HTU21D;63874;47.230;39.620;2023-08-30T05:33:50;21.07;37.41
75281;HTU21D;63874;47.230;39.620;2023-08-30T05:36:34;21.14;37.27
75281;HTU21D;63874;47.230;39.620;2023-08-30T05:39:20;21.23;37.03
75281;HTU21D;63874;47.230;39.620;2023-08-30T05:41:50;21.29;36.59
75281;HTU21D;63874;47.230;39.620;2023-08-30T05:44:15;21.34;36.28
75281;HTU21D;63874;47.230;39.620;2023-08-30T05:46:42;21.42;36.04
75281;HTU21D;63874;47.230;39.620;2023-08-30T05:49:08;21.47;35.94
75281;HTU21D;63874;47.230;39.620;2023-08-30T05:51:34;21.55;35.79
75281;HTU21D;63874;47.230;39.620;2023-08-30T05:54:00;21.65;35.54
75281;HTU21D;63874;47.230;39.620;2023-08-30T05:56:25;21.80;34.40
75281;HTU21D;63874;47.230;39.620;2023-08-30T05:58:51;21.94;33.82
75281;HTU21D;63874;47.230;39.620;2023-08-30T06:01:18;22.14;33.23
75281;HTU21D;63874;47.230;39.620;2023-08-30T06:03:45;22.42;32.73
75281;HTU21D;63874;47.230;39.620;2023-08-30T06:06:12;22.63;32.00
75281;HTU21D;63874;47.230;39.620;2023-08-30T06:08:38;22.76;31.69
75281;HTU21D;63874;47.230;39.620;2023-08-30T06:11:06;22.81;31.45
75281;HTU21D;63874;47.230;39.620;2023-08-30T06:13:35;22.86;31.45
75281;HTU21D;63874;47.230;39.620;2023-08-30T06:16:01;22.94;30.67
75281;HTU21D;63874;47.230;39.620;2023-08-30T06:18:31;23.10;30.36
75281;HTU21D;63874;47.230;39.620;2023-08-30T06:20:59;23.28;29.48
75281;HTU21D;63874;47.230;39.620;2023-08-30T06:23:25;23.31;29.00
75281;HTU21D;63874;47.230;39.620;2023-08-30T06:25:57;23.32;28.80
75281;HTU21D;63874;47.230;39.620;2023-08-30T06:28:23;23.35;28.71
75281;HTU21D;63874;47.230;39.620;2023-08-30T06:30:49;23.35;27.81
75281;HTU21D;63874;47.230;39.620;2023-08-30T06:33:16;23.34;27.73
75281;HTU21D;63874;47.230;39.620;2023-08-30T06:35:42;23.35;28.09
75281;HTU21D;63874;47.230;39.620;2023-08-30T06:38:08;23.43;27.58
75281;HTU21D;63874;47.230;39.620;2023-08-30T06:40:35;23.47;27.17
75281;HTU21D;63874;47.230;39.620;2023-08-30T06:43:01;23.51;27.16
75281;HTU21D;63874;47.230;39.620;2023-08-30T06:45:27;23.54;27.28
75281;HTU21D;63874;47.230;39.620;2023-08-30T06:47:53;23.56;27.26
75281;HTU21D;63874;47.230;39.620;2023-08-30T06:50:18;23.60;27.01
75281;HTU21D;63874;47.230;39.620;2023-08-30T06:52:44;23.66;26.93
75281;HTU21D;63874;47.230;39.620;2023-08-30T06:55:10;23.71;26.75
75281;HTU21D;63874;47.230;39.620;2023-08-30T06:57:36;23.76;26.55
75281;HTU21D;63874;47.230;39.620;2023-08-30T07:00:02;23.83;26.08
75281;HTU21D;63874;47.230;39.620;2023-08-30T07:02:34;23.87;25.98
75281;HTU21D;63874;47.230;39.620;2023-08-30T07:05:00;23.86;26.24
75281;HTU21D;63874;47.230;39.620;2023-08-30T07:07:34;23.94;25.67
75281;HTU21D;63874;47.230;39.620;2023-08-30T07:10:00;23.98;25.15
75281;HTU21D;63874;47.230;39.620;2023-08-30T07:12:26;23.98;24.72
75281;HTU21D;63874;47.230;39.620;2023-08-30T07:14:52;23.95;24.84
75281;HTU21D;63874;47.230;39.620;2023-08-30T07:17:18;23.95;24.31
75281;HTU21D;63874;47.230;39.620;2023-08-30T07:19:44;23.91;24.74
75281;HTU21D;63874;47.230;39.620;2023-08-30T07:22:10;23.95;24.82
75281;HTU21D;63874;47.230;39.620;2023-08-30T07:24:36;24.00;24.61
75281;HTU21D;63874;47.230;39.620;2023-08-30T07:27:02;24.04;25.12
75281;HTU21D;63874;47.230;39.620;2023-08-30T07:29:28;24.11;23.50
75281;HTU21D;63874;47.230;39.620;2023-08-30T07:31:54;24.05;23.58
75281;HTU21D;63874;47.230;39.620;2023-08-30T07:34:20;24.00;23.69
75281;HTU21D;63874;47.230;39.620;2023-08-30T07:36:46;23.89;24.49
75281;HTU21D;63874;47.230;39.620;2023-08-30T07:39:12;23.91;24.39
75281;HTU21D;63874;47.230;39.620;2023-08-30T07:41:38;23.94;24.62
75281;HTU21D;63874;47.230;39.620;2023-08-30T07:44:04;23.99;24.49
75281;HTU21D;63874;47.230;39.620;2023-08-30T07:46:30;24.04;24.64
75281;HTU21D;63874;47.230;39.620;2023-08-30T07:48:56;24.10;24.41
75281;HTU21D;63874;47.230;39.620;2023-08-30T07:51:22;24.16;24.41
75281;HTU21D;63874;47.230;39.620;2023-08-30T07:53:48;24.26;24.04
75281;HTU21D;63874;47.230;39.620;2023-08-30T07:56:14;24.31;23.63
75281;HTU21D;63874;47.230;39.620;2023-08-30T07:58:41;24.33;22.90
75281;HTU21D;63874;47.230;39.620;2023-08-30T08:01:08;24.31;23.09
75281;HTU21D;63874;47.230;39.620;2023-08-30T08:03:34;24.30;22.88
75281;HTU21D;63874;47.230;39.620;2023-08-30T08:06:00;24.27;23.11
75281;HTU21D;63874;47.230;39.620;2023-08-30T08:08:26;24.25;23.66
75281;HTU21D;63874;47.230;39.620;2023-08-30T08:10:51;24.27;24.16
75281;HTU21D;63874;47.230;39.620;2023-08-30T08:13:17;24.35;24.16
75281;HTU21D;63874;47.230;39.620;2023-08-30T08:15:43;24.40;24.22
75281;HTU21D;63874;47.230;39.620;2023-08-30T08:18:09;24.42;24.53
75281;HTU21D;63874;47.230;39.620;2023-08-30T08:20:38;24.50;24.42
75281;HTU21D;63874;47.230;39.620;2023-08-30T08:23:04;24.58;24.29
75281;HTU21D;63874;47.230;39.620;2023-08-30T08:25:30;24.66;24.13
75281;HTU21D;63874;47.230;39.620;2023-08-30T08:27:56;24.74;23.94
75281;HTU21D;63874;47.230;39.620;2023-08-30T08:30:22;24.76;23.33
75281;HTU21D;63874;47.230;39.620;2023-08-30T08:32:48;24.72;23.68
75281;HTU21D;63874;47.230;39.620;2023-08-30T08:35:14;24.78;23.88
75281;HTU21D;63874;47.230;39.620;2023-08-30T08:37:40;24.86;23.92
75281;HTU21D;63874;47.230;39.620;2023-08-30T08:40:06;24.93;23.74
75281;HTU21D;63874;47.230;39.620;2023-08-30T08:42:34;24.99;23.92
75281;HTU21D;63874;47.230;39.620;2023-08-30T08:45:02;25.07;23.59
75281;HTU21D;63874;47.230;39.620;2023-08-30T08:47:30;25.20;22.93
75281;HTU21D;63874;47.230;39.620;2023-08-30T08:49:57;25.25;23.10
75281;HTU21D;63874;47.230;39.620;2023-08-30T08:52:26;25.30;22.87
75281;HTU21D;63874;47.230;39.620;2023-08-30T08:54:52;25.36;23.25
75281;HTU21D;63874;47.230;39.620;2023-08-30T08:57:18;25.46;22.90
75281;HTU21D;63874;47.230;39.620;2023-08-30T08:59:44;25.53;23.05
75281;HTU21D;63874;47.230;39.620;2023-08-30T09:02:14;25.62;23.21
75281;HTU21D;63874;47.230;39.620;2023-08-30T09:04:40;25.76;22.85
75281;HTU21D;63874;47.230;39.620;2023-08-30T09:07:06;25.88;22.78
75281;HTU21D;63874;47.230;39.620;2023-08-30T09:09:33;25.98;22.38
75281;HTU21D;63874;47.230;39.620;2023-08-30T09:11:58;26.08;22.40
75281;HTU21D;63874;47.230;39.620;2023-08-30T09:14:24;26.20;22.33
75281;HTU21D;63874;47.230;39.620;2023-08-30T09:16:59;26.40;22.22
75281;HTU21D;63874;47.230;39.620;2023-08-30T09:19:26;27.27;21.87
75281;HTU21D;63874;47.230;39.620;2023-08-30T09:21:52;28.75;19.88
75281;HTU21D;63874;47.230;39.620;2023-08-30T09:24:18;30.34;19.02
75281;HTU21D;63874;47.230;39.620;2023-08-30T09:26:46;31.22;16.42
75281;HTU21D;63874;47.230;39.620;2023-08-30T09:29:12;31.46;16.61
75281;HTU21D;63874;47.230;39.620;2023-08-30T09:31:38;32.27;16.81
75281;HTU21D;63874;47.230;39.620;2023-08-30T09:34:05;33.33;16.03
75281;HTU21D;63874;47.230;39.620;2023-08-30T09:36:34;34.41;15.12
75281;HTU21D;63874;47.230;39.620;2023-08-30T09:39:11;35.30;14.99
75281;HTU21D;63874;47.230;39.620;2023-08-30T09:41:40;36.15;13.97
75281;HTU21D;63874;47.230;39.620;2023-08-30T09:44:10;37.03;13.12
75281;HTU21D;63874;47.230;39.620;2023-08-30T09:46:52;37.54;10.93
75281;HTU21D;63874;47.230;39.620;2023-08-30T09:49:22;37.63;12.41
75281;HTU21D;63874;47.230;39.620;2023-08-30T09:51:48;38.16;12.37
75281;HTU21D;63874;47.230;39.620;2023-08-30T09:54:14;38.33;11.46
75281;HTU21D;63874;47.230;39.620;2023-08-30T09:56:44;38.34;9.75
75281;HTU21D;63874;47.230;39.620;2023-08-30T09:59:10;38.22;10.40
75281;HTU21D;63874;47.230;39.620;2023-08-30T10:01:37;38.21;10.33
75281;HTU21D;63874;47.230;39.620;2023-08-30T10:04:03;38.02;9.52
75281;HTU21D;63874;47.230;39.620;2023-08-30T10:06:29;38.17;10.30
75281;HTU21D;63874;47.230;39.620;2023-08-30T10:08:55;38.64;8.63
75281;HTU21D;63874;47.230;39.620;2023-08-30T10:11:21;38.76;9.30
75281;HTU21D;63874;47.230;39.620;2023-08-30T10:13:49;38.85;9.16
75281;HTU21D;63874;47.230;39.620;2023-08-30T10:16:18;38.97;8.57
75281;HTU21D;63874;47.230;39.620;2023-08-30T10:18:46;38.66;8.32
75281;HTU21D;63874;47.230;39.620;2023-08-30T10:21:13;37.97;7.35
75281;HTU21D;63874;47.230;39.620;2023-08-30T10:23:39;37.40;8.14
75281;HTU21D;63874;47.230;39.620;2023-08-30T10:26:05;36.82;8.80
75281;HTU21D;63874;47.230;39.620;2023-08-30T10:28:32;36.96;9.87
75281;HTU21D;63874;47.230;39.620;2023-08-30T10:30:59;37.58;9.31
75281;HTU21D;63874;47.230;39.620;2023-08-30T10:33:24;37.75;8.76
75281;HTU21D;63874;47.230;39.620;2023-08-30T10:35:51;37.97;9.06
75281;HTU21D;63874;47.230;39.620;2023-08-30T10:38:27;38.50;8.51
75281;HTU21D;63874;47.230;39.620;2023-08-30T10:40:53;38.98;8.75
75281;HTU21D;63874;47.230;39.620;2023-08-30T10:43:27;39.78;8.38
75281;HTU21D;63874;47.230;39.620;2023-08-30T10:46:03;39.33;6.76
75281;HTU21D;63874;47.230;39.620;2023-08-30T10:48:38;38.64;8.23
75281;HTU21D;63874;47.230;39.620;2023-08-30T10:51:15;38.76;7.31
75281;HTU21D;63874;47.230;39.620;2023-08-30T10:53:58;38.74;6.63
75281;HTU21D;63874;47.230;39.620;2023-08-30T10:56:30;37.94;7.13
75281;HTU21D;63874;47.230;39.620;2023-08-30T10:58:56;37.38;7.65
75281;HTU21D;63874;47.230;39.620;2023-08-30T11:01:22;36.83;8.19
75281;HTU21D;63874;47.230;39.620;2023-08-30T11:03:48;36.74;8.49
75281;HTU21D;63874;47.230;39.620;2023-08-30T11:06:17;36.78;8.43
75281;HTU21D;63874;47.230;39.620;2023-08-30T11:08:43;36.96;8.49
75281;HTU21D;63874;47.230;39.620;2023-08-30T11:11:09;37.18;8.77
75281;HTU21D;63874;47.230;39.620;2023-08-30T11:13:37;37.70;8.50
75281;HTU21D;63874;47.230;39.620;2023-08-30T11:16:03;37.91;7.08
75281;HTU21D;63874;47.230;39.620;2023-08-30T11:18:33;37.31;7.48
75281;HTU21D;63874;47.230;39.620;2023-08-30T11:21:01;37.12;8.24
75281;HTU21D;63874;47.230;39.620;2023-08-30T11:23:30;37.19;7.74
75281;HTU21D;63874;47.230;39.620;2023-08-30T11:25:56;37.12;7.97
75281;HTU21D;63874;47.230;39.620;2023-08-30T11:28:25;37.01;7.94
75281;HTU21D;63874;47.230;39.620;2023-08-30T11:30:54;37.13;8.12
75281;HTU21D;63874;47.230;39.620;2023-08-30T11:33:20;37.69;8.40
75281;HTU21D;63874;47.230;39.620;2023-08-30T11:35:49;38.73;7.34
75281;HTU21D;63874;47.230;39.620;2023-08-30T11:38:17;38.81;7.27
75281;HTU21D;63874;47.230;39.620;2023-08-30T11:40:44;37.48;7.60
75281;HTU21D;63874;47.230;39.620;2023-08-30T11:43:10;35.49;7.99
75281;HTU21D;63874;47.230;39.620;2023-08-30T11:45:36;33.78;9.53
75281;HTU21D;63874;47.230;39.620;2023-08-30T11:48:02;32.55;10.56
75281;HTU21D;63874;47.230;39.620;2023-08-30T11:50:30;31.52;11.40
75281;HTU21D;63874;47.230;39.620;2023-08-30T11:52:56;30.79;12.42
75281;HTU21D;63874;47.230;39.620;2023-08-30T11:55:24;30.25;12.91
75281;HTU21D;63874;47.230;39.620;2023-08-30T11:57:50;30.13;13.21
75281;HTU21D;63874;47.230;39.620;2023-08-30T12:00:20;31.18;12.94
75281;HTU21D;63874;47.230;39.620;2023-08-30T12:02:46;32.69;11.51
75281;HTU21D;63874;47.230;39.620;2023-08-30T12:05:12;33.71;9.79
75281;HTU21D;63874;47.230;39.620;2023-08-30T12:07:41;34.33;9.14
75281;HTU21D;63874;47.230;39.620;2023-08-30T12:10:10;33.47;9.85
75281;HTU21D;63874;47.230;39.620;2023-08-30T12:12:36;32.33;10.86
75281;HTU21D;63874;47.230;39.620;2023-08-30T12:15:07;31.41;11.70
75281;HTU21D;63874;47.230;39.620;2023-08-30T12:17:35;30.53;12.54
75281;HTU21D;63874;47.230;39.620;2023-08-30T12:20:04;29.87;12.96
75281;HTU21D;63874;47.230;39.620;2023-08-30T12:22:40;29.34;13.39
75281;HTU21D;63874;47.230;39.620;2023-08-30T12:25:21;28.90;13.49
75281;HTU21D;63874;47.230;39.620;2023-08-30T12:27:52;28.44;13.86
75281;HTU21D;63874;47.230;39.620;2023-08-30T12:30:19;28.10;14.02
75281;HTU21D;63874;47.230;39.620;2023-08-30T12:32:46;27.84;14.59
75281;HTU21D;63874;47.230;39.620;2023-08-30T12:35:12;27.64;14.69
75281;HTU21D;63874;47.230;39.620;2023-08-30T12:37:39;27.47;15.11
75281;HTU21D;63874;47.230;39.620;2023-08-30T12:40:06;27.30;15.22
75281;HTU21D;63874;47.230;39.620;2023-08-30T12:42:33;27.22;15.07
75281;HTU21D;63874;47.230;39.620;2023-08-30T12:44:59;27.13;14.92
75281;HTU21D;63874;47.230;39.620;2023-08-30T12:47:26;27.07;15.25
75281;HTU21D;63874;47.230;39.620;2023-08-30T12:49:52;27.01;15.29
75281;HTU21D;63874;47.230;39.620;2023-08-30T12:52:18;26.94;15.45
75281;HTU21D;63874;47.230;39.620;2023-08-30T12:54:46;26.87;15.68
75281;HTU21D;63874;47.230;39.620;2023-08-30T12:57:16;26.84;15.64
75281;HTU21D;63874;47.230;39.620;2023-08-30T12:59:46;26.81;15.84
75281;HTU21D;63874;47.230;39.620;2023-08-30T13:02:12;26.80;15.75
75281;HTU21D;63874;47.230;39.620;2023-08-30T13:04:41;26.79;15.35
75281;HTU21D;63874;47.230;39.620;2023-08-30T13:07:07;26.76;15.08
75281;HTU21D;63874;47.230;39.620;2023-08-30T13:09:33;26.71;15.29
75281;HTU21D;63874;47.230;39.620;2023-08-30T13:11:59;26.68;15.74
75281;HTU21D;63874;47.230;39.620;2023-08-30T13:14:25;26.66;16.03
75281;HTU21D;63874;47.230;39.620;2023-08-30T13:16:52;26.65;16.29
75281;HTU21D;63874;47.230;39.620;2023-08-30T13:19:19;26.63;16.53
75281;HTU21D;63874;47.230;39.620;2023-08-30T13:21:45;26.61;16.54
75281;HTU21D;63874;47.230;39.620;2023-08-30T13:24:11;26.63;16.70
75281;HTU21D;63874;47.230;39.620;2023-08-30T13:26:37;26.62;16.68
75281;HTU21D;63874;47.230;39.620;2023-08-30T13:29:03;26.58;16.52
75281;HTU21D;63874;47.230;39.620;2023-08-30T13:31:30;26.58;16.74
75281;HTU21D;63874;47.230;39.620;2023-08-30T13:33:56;26.60;16.59
75281;HTU21D;63874;47.230;39.620;2023-08-30T13:36:24;26.60;16.58
75281;HTU21D;63874;47.230;39.620;2023-08-30T13:38:51;26.57;16.80
75281;HTU21D;63874;47.230;39.620;2023-08-30T13:41:17;26.55;16.87
75281;HTU21D;63874;47.230;39.620;2023-08-30T13:43:43;26.54;16.80
75281;HTU21D;63874;47.230;39.620;2023-08-30T13:46:11;26.54;16.87
75281;HTU21D;63874;47.230;39.620;2023-08-30T13:48:38;26.53;16.74
75281;HTU21D;63874;47.230;39.620;2023-08-30T13:51:04;26.51;16.89
75281;HTU21D;63874;47.230;39.620;2023-08-30T13:53:31;26.50;16.42
75281;HTU21D;63874;47.230;39.620;2023-08-30T13:55:58;26.49;16.39
75281;HTU21D;63874;47.230;39.620;2023-08-30T13:58:24;26.47;16.11
75281;HTU21D;63874;47.230;39.620;2023-08-30T14:00:50;26.45;16.31
75281;HTU21D;63874;47.230;39.620;2023-08-30T14:03:18;26.43;15.97
75281;HTU21D;63874;47.230;39.620;2023-08-30T14:05:45;26.42;16.05
75281;HTU21D;63874;47.230;39.620;2023-08-30T14:08:12;26.40;15.77
75281;HTU21D;63874;47.230;39.620;2023-08-30T14:10:41;26.42;15.42
75281;HTU21D;63874;47.230;39.620;2023-08-30T14:13:07;26.37;15.48
75281;HTU21D;63874;47.230;39.620;2023-08-30T14:15:33;26.34;15.78
75281;HTU21D;63874;47.230;39.620;2023-08-30T14:17:59;26.28;15.88
75281;HTU21D;63874;47.230;39.620;2023-08-30T14:20:28;26.26;15.87
75281;HTU21D;63874;47.230;39.620;2023-08-30T14:22:54;26.24;16.11
75281;HTU21D;63874;47.230;39.620;2023-08-30T14:25:21;26.23;16.09
75281;HTU21D;63874;47.230;39.620;2023-08-30T14:27:49;26.22;16.17
75281;HTU21D;63874;47.230;39.620;2023-08-30T14:30:15;26.16;16.34
75281;HTU21D;63874;47.230;39.620;2023-08-30T14:32:44;26.10;16.65
75281;HTU21D;63874;47.230;39.620;2023-08-30T14:35:10;26.12;16.55
75281;HTU21D;63874;47.230;39.620;2023-08-30T14:37:37;26.08;16.59
75281;HTU21D;63874;47.230;39.620;2023-08-30T14:40:04;26.07;16.51
75281;HTU21D;63874;47.230;39.620;2023-08-30T14:42:30;26.03;16.71
75281;HTU21D;63874;47.230;39.620;2023-08-30T14:44:58;26.01;16.54
75281;HTU21D;63874;47.230;39.620;2023-08-30T14:47:29;25.99;16.63
75281;HTU21D;63874;47.230;39.620;2023-08-30T14:49:56;25.92;16.87
75281;HTU21D;63874;47.230;39.620;2023-08-30T14:52:22;25.84;17.04
75281;HTU21D;63874;47.230;39.620;2023-08-30T14:54:48;25.80;17.14
75281;HTU21D;63874;47.230;39.620;2023-08-30T14:57:14;25.77;17.12
75281;HTU21D;63874;47.230;39.620;2023-08-30T14:59:39;25.76;17.03
75281;HTU21D;63874;47.230;39.620;2023-08-30T15:02:08;25.71;17.17
75281;HTU21D;63874;47.230;39.620;2023-08-30T15:04:34;25.68;17.26